Yuma, AZ (85365)

3:55 PM MST on September 02, 2015 (GMT -0700)
Yuma Downtown | | Change Station
CLOSE
Current Station
Personal Weather Station
Location: Yuma, AZ
Elevation: 171 ft
Nearby Weather Stations

Elev 171 ft 32.71 °N, 114.62 °W | Updated 9 seconds ago

Mostly Cloudy
Mostly Cloudy
100.8 °F
Feels Like 96 °F
N
6.7
Wind Variable Wind from SSE
Gusts 9.8 mph

Today
High -- | Low -- °F
--% Chance of Precip.
Yesterday
High -- | Low -- °F
Precip. -- in
6:13 AM 7:01 PM
Waning Gibbous, 76% visible
Pressure 29.75 in
Visibility 10.0 miles
Clouds Mostly Cloudy 20000 ft
Mostly Cloudy 25000 ft
Heat Index 96 °F
Dew Point 39 °F
Humidity 12%
Rainfall 0.00 in
Snow Depth Not available.
UV 2.0 out of 12
Pollen 7.20 out of 12
Air Quality Not available.
Flu Activity Not available.
METAR KNYL 022157Z 18011KT 10SM BKN200 BKN250 38/09 A2977 RMK AO2 SLP075 T03830089
Pressure 29.75 in
Visibility 10.0 miles
Clouds Mostly Cloudy 20000 ft
Mostly Cloudy 25000 ft
Heat Index 96 °F
Dew Point 39 °F
Humidity 12%
Rainfall 0.00 in
Snow Depth Not available.
UV 2.0 out of 12
Pollen 7.20 out of 12
Air Quality Not available.
Flu Activity Not available.
METAR KNYL 022157Z 18011KT 10SM BKN200 BKN250 38/09 A2977 RMK AO2 SLP075 T03830089

10-Day Weather Forecast

×

Almanac

Astronomy

Sep. 02, 2015 Rise Set
Actual Time
Civil Twilight
Nautical Twilight
Astronomical Twilight
Moon
Length of Visible Light
Length of Day
Tomorrow will be .
, % of the Moon is Illuminated

Today's Extremes

State Highs State Lows

Community

WunderPhotos

Upload Photos

1,851,822 photos uploaded!

WunderBlogs® & News

Nearby

Air Quality

  Air Quality AQ Index Pollutant
Not available.

Snow Depth

Station Depth Elevation

Earthquake Activity

City Distance Mag. Time & Date
Minimum magnitude displayed is 2.5.

Coastal Water Temperatures

Place Temperature

Stations

Nearby Weather Stations

Station Location Temp. Windchill Dew Point Humidity Wind Precip. Elev Updated Type